Time;durP1;ratioP1;P1;durP2;ratioP2;P2;SDS_P1;SDS_P2;PMS_P1;PMS_P2;Temp;Humidity;BMP_temperature;BMP_pressure;BME280_temperature;BME280_humidity;BME280_pressure;Samples;Min_cycle;Max_cycle;Signal;HPM_P1;HPM_P2
2021/08/07 00:00:03;;;;;;;;;;;;;;;21.91;51.00;95027.13;1045614;28;1317;-71
2021/08/07 00:00:35;;;;;;;;;;;;;;;21.91;50.90;95025.25;1045685;28;1034;-71
2021/08/07 00:01:05;;;;;;;;;;;;;;;21.91;51.02;95027.88;1044972;28;1189;-72
2021/08/07 00:01:35;;;;;;;;;;;;;;;21.91;50.84;95025.25;1045646;28;1229;-71
2021/08/07 00:02:06;;;;;;;;;;;;;;;21.92;50.59;95023.41;1045686;28;1185;-71
2021/08/07 00:02:36;;;;;;;;;;;;;;;21.92;50.96;95026.81;1045649;28;1138;-71
2021/08/07 00:03:06;;;;;;;;;;;;;;;21.91;50.84;95025.25;1045257;28;1163;-71
2021/08/07 00:03:36;;;;;;;;;;;;;;;21.91;50.83;95019.97;1045411;28;784;-73
2021/08/07 00:04:07;;;;;;;;;;;;;;;21.92;51.24;95021.56;1043287;28;2689;-73
2021/08/07 00:04:37;;;;;;;;;;;;;;;21.93;50.96;95022.34;1043777;28;2713;-73
2021/08/07 00:05:07;;;;;;;;;;;;;;;21.93;50.82;95025.72;1040923;28;1144;-73
2021/08/07 00:05:37;;;;;;;;;;;;;;;21.92;51.03;95021.56;1041069;28;2796;-71
2021/08/07 00:06:08;;;;;;;;;;;;;;;21.92;50.68;95024.19;1040886;28;1223;-72
2021/08/07 00:06:38;;;;;;;;;;;;;;;21.92;50.79;95029.47;1035006;28;1623;-71
2021/08/07 00:07:08;;;;;;;;;;;;;;;21.92;51.04;95026.81;1043610;28;1160;-70
2021/08/07 00:07:39;;;;;;;;;;;;;;;21.92;50.87;95026.81;1044063;28;1134;-72
2021/08/07 00:08:09;;;;;;;;;;;;;;;21.92;50.84;95029.47;1045280;28;1387;-72
2021/08/07 00:08:39;;;;;;;;;;;;;;;21.93;50.69;95032.88;1047578;28;1391;-72
2021/08/07 00:09:09;;;;;;;;;;;;;;;21.92;50.96;95026.81;1047867;28;1155;-71
2021/08/07 00:09:40;;;;;;;;;;;;;;;21.94;50.79;95026.53;1043052;28;2621;-72
2021/08/07 00:10:10;;;;;;;;;;;;;;;21.93;50.86;95025.72;1045333;28;1155;-71
2021/08/07 00:10:40;;;;;;;;;;;;;;;21.93;50.83;95017.81;1045428;28;1923;-72
2021/08/07 00:11:11;;;;;;;;;;;;;;;21.93;51.12;95019.69;1040561;28;1375;-72
2021/08/07 00:11:41;;;;;;;;;;;;;;;21.93;51.09;95014.41;1045523;28;947;-72
2021/08/07 00:12:11;;;;;;;;;;;;;;;21.92;51.22;95016.28;1041253;28;1347;-73
2021/08/07 00:12:41;;;;;;;;;;;;;;;21.92;51.15;95016.28;1041013;28;1162;-70
2021/08/07 00:13:12;;;;;;;;;;;;;;;21.92;51.26;95012.84;1040356;28;1278;-71
2021/08/07 00:13:42;;;;;;;;;;;;;;;21.92;51.26;95015.50;1040879;28;1464;-72
2021/08/07 00:14:12;;;;;;;;;;;;;;;21.92;51.00;95016.28;1044198;28;1167;-72
2021/08/07 00:14:43;;;;;;;;;;;;;;;21.92;51.21;95021.56;1043012;28;2697;-72
2021/08/07 00:15:13;;;;;;;;;;;;;;;21.92;51.22;95018.13;1048959;28;1247;-71
2021/08/07 00:15:43;;;;;;;;;;;;;;;21.92;51.04;95018.13;1049343;28;760;-71
2021/08/07 00:16:13;;;;;;;;;;;;;;;21.91;51.12;95017.34;1044529;28;1313;-73
2021/08/07 00:16:44;;;;;;;;;;;;;;;21.91;51.13;95014.69;1045342;28;1217;-71
2021/08/07 00:17:14;;;;;;;;;;;;;;;21.92;51.31;95021.56;1044281;28;1194;-70
2021/08/07 00:17:44;;;;;;;;;;;;;;;21.92;50.89;95016.28;1043976;28;1142;-72
2021/08/07 00:18:14;;;;;;;;;;;;;;;21.92;51.09;95024.19;1045725;28;749;-71
2021/08/07 00:18:45;;;;;;;;;;;;;;;21.91;51.08;95017.34;1045580;28;1193;-72
2021/08/07 00:19:15;;;;;;;;;;;;;;;21.93;50.98;95024.97;1045239;28;1165;-72
2021/08/07 00:19:45;;;;;;;;;;;;;;;21.93;51.11;95024.97;1043958;28;2773;-71
2021/08/07 00:20:16;;;;;;;;;;;;;;;21.92;50.89;95016.28;1045414;28;777;-71
2021/08/07 00:20:46;;;;;;;;;;;;;;;21.92;50.84;95018.91;1045257;28;1048;-71
2021/08/07 00:21:16;;;;;;;;;;;;;;;21.92;50.90;95015.50;1040933;28;1263;-71
2021/08/07 00:21:48;;;;;;;;;;;;;;;21.93;51.13;95014.41;1044974;28;1061;-71
2021/08/07 00:22:18;;;;;;;;;;;;;;;21.92;51.08;95012.84;1045559;28;1034;-71
2021/08/07 00:22:49;;;;;;;;;;;;;;;21.92;50.97;95005.72;1045142;28;1146;-71
2021/08/07 00:23:19;;;;;;;;;;;;;;;21.92;51.12;95010.22;1041612;28;1759;-71
2021/08/07 00:23:49;;;;;;;;;;;;;;;21.92;50.79;95011.00;1042487;28;1203;-71
2021/08/07 00:24:19;;;;;;;;;;;;;;;21.92;50.89;95008.34;1045786;28;2276;-72
2021/08/07 00:24:50;;;;;;;;;;;;;;;21.91;50.89;95004.16;1042558;28;2181;-71
2021/08/07 00:25:20;;;;;;;;;;;;;;;21.91;50.88;95006.03;1045348;28;773;-73
2021/08/07 00:25:50;;;;;;;;;;;;;;;21.92;50.91;95012.84;1046078;28;1174;-72
2021/08/07 00:26:20;;;;;;;;;;;;;;;21.91;51.05;95009.41;1046704;28;1276;-71
2021/08/07 00:26:51;;;;;;;;;;;;;;;21.91;50.83;95009.41;1040977;28;1875;-71
2021/08/07 00:27:21;;;;;;;;;;;;;;;21.91;51.02;95012.06;1041328;28;824;-72
2021/08/07 00:27:51;;;;;;;;;;;;;;;21.91;51.10;95014.69;1040823;28;1139;-71
2021/08/07 00:28:22;;;;;;;;;;;;;;;21.91;50.89;95008.66;1041174;28;796;-71
2021/08/07 00:28:52;;;;;;;;;;;;;;;21.90;51.11;95007.09;1042578;28;1276;-71
2021/08/07 00:29:22;;;;;;;;;;;;;;;21.91;50.79;95008.66;1043686;28;2308;-73
2021/08/07 00:29:52;;;;;;;;;;;;;;;21.91;51.06;95003.38;1040932;28;1401;-72
2021/08/07 00:30:23;;;;;;;;;;;;;;;21.90;51.13;95001.81;1041149;28;1967;-71
2021/08/07 00:30:53;;;;;;;;;;;;;;;21.90;51.13;95005.25;1041141;28;1226;-71
2021/08/07 00:31:24;;;;;;;;;;;;;;;21.90;51.18;95005.25;1039889;28;1663;-71
2021/08/07 00:31:54;;;;;;;;;;;;;;;21.91;51.21;95000.75;1042237;28;1228;-71
2021/08/07 00:32:24;;;;;;;;;;;;;;;21.90;51.04;94999.19;1041003;28;971;-71
2021/08/07 00:32:54;;;;;;;;;;;;;;;21.90;50.87;95005.25;1042493;28;1198;-71
2021/08/07 00:33:25;;;;;;;;;;;;;;;21.90;50.74;95013.16;1043269;28;2531;-72
2021/08/07 00:33:55;;;;;;;;;;;;;;;21.90;50.96;95004.44;1040133;28;1132;-72
2021/08/07 00:34:25;;;;;;;;;;;;;;;21.90;51.03;95012.38;1045250;28;2356;-73
2021/08/07 00:34:56;;;;;;;;;;;;;;;21.90;50.81;95009.72;1046905;28;964;-71
2021/08/07 00:35:26;;;;;;;;;;;;;;;21.90;51.02;95013.16;1049583;28;1066;-71
2021/08/07 00:35:56;;;;;;;;;;;;;;;21.90;50.96;95022.91;1048181;28;1139;-71
2021/08/07 00:36:27;;;;;;;;;;;;;;;21.90;50.84;95020.28;1044785;28;1256;-71
2021/08/07 00:36:57;;;;;;;;;;;;;;;21.90;50.84;95015.00;1045066;28;1195;-72
2021/08/07 00:37:27;;;;;;;;;;;;;;;21.89;50.98;95016.84;1041112;28;1151;-72
2021/08/07 00:37:57;;;;;;;;;;;;;;;21.89;50.85;95019.50;1039234;28;1215;-71
2021/08/07 00:38:28;;;;;;;;;;;;;;;21.90;51.14;95022.91;1036910;28;687;-71
2021/08/07 00:38:58;;;;;;;;;;;;;;;21.90;50.98;95023.72;1045095;28;1523;-71
2021/08/07 00:39:28;;;;;;;;;;;;;;;21.90;51.10;95033.47;1040186;28;2352;-70
2021/08/07 00:39:58;;;;;;;;;;;;;;;21.90;50.92;95023.72;1038146;28;1558;-70
2021/08/07 00:40:29;;;;;;;;;;;;;;;21.90;50.98;95023.72;1045261;28;838;-71
2021/08/07 00:40:59;;;;;;;;;;;;;;;21.91;51.11;95025.25;1047159;28;1170;-72
2021/08/07 00:41:29;;;;;;;;;;;;;;;21.90;50.89;95022.91;1046508;28;1310;-71
2021/08/07 00:42:00;;;;;;;;;;;;;;;21.90;50.90;95015.78;1045851;28;1127;-72
2021/08/07 00:42:30;;;;;;;;;;;;;;;21.89;50.93;95019.50;1047821;28;1114;-72
2021/08/07 00:43:00;;;;;;;;;;;;;;;21.88;51.19;95021.34;1047893;28;1186;-71
2021/08/07 00:43:31;;;;;;;;;;;;;;;21.90;51.20;95013.16;1049469;28;1377;-71
2021/08/07 00:44:01;;;;;;;;;;;;;;;21.89;50.98;95016.84;1042722;28;1983;-72
2021/08/07 00:44:31;;;;;;;;;;;;;;;21.89;51.20;95016.84;1043799;28;2386;-71
2021/08/07 00:45:02;;;;;;;;;;;;;;;21.89;51.16;95011.56;1045224;28;1231;-72
2021/08/07 00:45:32;;;;;;;;;;;;;;;21.90;50.77;95010.50;1040995;28;1267;-72
2021/08/07 00:46:02;;;;;;;;;;;;;;;21.88;51.12;95002.88;1037044;28;1428;-72
2021/08/07 00:46:33;;;;;;;;;;;;;;;21.90;50.91;95010.50;1040660;28;1249;-71
2021/08/07 00:47:03;;;;;;;;;;;;;;;21.91;51.10;95003.38;1043672;28;1108;-71
2021/08/07 00:47:33;;;;;;;;;;;;;;;21.88;51.17;95005.50;1042213;28;1717;-71
2021/08/07 00:48:05;;;;;;;;;;;;;;;21.90;51.10;95007.09;1044680;28;1072;-72
2021/08/07 00:48:35;;;;;;;;;;;;;;;21.91;51.17;95012.06;1044471;28;1361;-72
2021/08/07 00:49:05;;;;;;;;;;;;;;;21.90;51.04;95013.16;1038404;28;1077;-73
2021/08/07 00:49:36;;;;;;;;;;;;;;;21.90;51.05;95013.16;1039075;28;2427;-71
2021/08/07 00:50:06;;;;;;;;;;;;;;;21.90;50.83;95015.78;1043132;28;1092;-71
2021/08/07 00:50:37;;;;;;;;;;;;;;;21.89;50.96;95008.94;1045271;28;1910;-72
2021/08/07 00:51:07;;;;;;;;;;;;;;;21.90;51.25;95013.16;1048513;28;1015;-71
2021/08/07 00:51:37;;;;;;;;;;;;;;;21.91;51.06;95003.38;1045093;28;1057;-71
2021/08/07 00:52:07;;;;;;;;;;;;;;;21.90;50.90;95010.50;1045077;28;985;-71
2021/08/07 00:52:38;;;;;;;;;;;;;;;21.90;50.95;95013.16;1044771;28;1463;-71
2021/08/07 00:53:08;;;;;;;;;;;;;;;21.90;50.94;95010.50;1045599;28;1281;-73
2021/08/07 00:53:38;;;;;;;;;;;;;;;21.90;50.99;95013.16;1045288;28;1041;-72
2021/08/07 00:54:08;;;;;;;;;;;;;;;21.89;51.00;95014.22;1041036;28;1131;-72
2021/08/07 00:54:39;;;;;;;;;;;;;;;21.89;51.09;95008.94;1038173;28;2289;-71
2021/08/07 00:55:09;;;;;;;;;;;;;;;21.88;51.19;95010.03;1040307;28;1161;-70
2021/08/07 00:55:40;;;;;;;;;;;;;;;21.90;51.02;95013.16;1038195;28;1785;-71
2021/08/07 00:56:13;;;;;;;;;;;;;;;21.89;51.06;95011.56;1043822;28;1601;-72
2021/08/07 00:56:43;;;;;;;;;;;;;;;21.90;50.82;95007.09;1032438;28;1640;-71
2021/08/07 00:57:14;;;;;;;;;;;;;;;21.89;50.97;95011.56;1033393;28;1691;-71
2021/08/07 00:57:44;;;;;;;;;;;;;;;21.88;51.05;95013.44;1038881;28;1175;-74
2021/08/07 00:58:14;;;;;;;;;;;;;;;21.89;51.13;95016.84;1045125;28;1253;-71
2021/08/07 00:58:44;;;;;;;;;;;;;;;21.88;51.18;95016.06;1044878;28;1116;-73
2021/08/07 00:59:15;;;;;;;;;;;;;;;21.88;51.21;95012.66;1043861;28;1182;-73
2021/08/07 00:59:45;;;;;;;;;;;;;;;21.90;50.98;95012.38;1040834;28;1132;-72
2021/08/07 01:00:15;;;;;;;;;;;;;;;21.88;50.86;95016.06;1038936;28;2740;-71
2021/08/07 01:00:45;;;;;;;;;;;;;;;21.89;51.16;95008.94;1041001;28;1150;-72
2021/08/07 01:01:16;;;;;;;;;;;;;;;21.88;50.97;95004.75;1045136;28;714;-72
2021/08/07 01:01:56;;;;;;;;;;;;;;;21.88;50.64;95008.16;1045027;28;1177;-72
2021/08/07 01:02:27;;;;;;;;;;;;;;;21.88;51.03;95005.50;1045045;28;1174;-72
2021/08/07 01:03:02;;;;;;;;;;;;;;;21.90;50.83;95007.09;1040755;28;1244;-72
2021/08/07 01:03:45;;;;;;;;;;;;;;;21.88;50.82;94997.59;1039130;28;1254;-72
2021/08/07 01:04:22;;;;;;;;;;;;;;;21.89;50.89;95001.03;1039767;28;2297;-72
2021/08/07 01:04:52;;;;;;;;;;;;;;;21.90;51.03;95002.59;1039965;28;1131;-72
2021/08/07 01:05:24;;;;;;;;;;;;;;;21.90;51.09;95002.59;1037908;28;2649;-75
2021/08/07 01:05:59;;;;;;;;;;;;;;;21.89;50.92;94995.75;1038447;28;2587;-72
2021/08/07 01:06:39;;;;;;;;;;;;;;;21.90;51.04;94997.31;1039001;28;1450;-72
2021/08/07 01:07:28;;;;;;;;;;;;;;;21.90;51.14;95007.09;1035866;28;1236;-71
2021/08/07 01:08:04;;;;;;;;;;;;;;;21.90;50.92;94996.53;1040893;28;1183;-72
2021/08/07 01:08:36;;;;;;;;;;;;;;;21.89;51.34;95001.03;1046475;28;1632;-72
2021/08/07 01:09:15;;;;;;;;;;;;;;;21.89;51.06;94995.75;1043985;28;1152;-70
2021/08/07 01:09:53;;;;;;;;;;;;;;;21.90;51.13;95001.81;1039920;28;1432;-72
2021/08/07 01:10:36;;;;;;;;;;;;;;;21.88;51.01;94999.47;1033759;28;2355;-71
2021/08/07 01:11:22;;;;;;;;;;;;;;;21.89;51.16;95003.66;1031441;28;1285;-71
2021/08/07 01:12:01;;;;;;;;;;;;;;;21.89;50.98;94998.38;1029901;28;1014;-73
2021/08/07 01:12:37;;;;;;;;;;;;;;;21.89;50.87;94998.38;1031123;28;1837;-71
2021/08/07 01:13:10;;;;;;;;;;;;;;;21.88;51.28;94994.97;1038622;28;1734;-73
2021/08/07 01:13:41;;;;;;;;;;;;;;;21.88;51.15;94994.19;1039027;28;1072;-72
2021/08/07 01:14:12;;;;;;;;;;;;;;;21.88;50.99;94994.97;1037556;28;1275;-72
2021/08/07 01:14:43;;;;;;;;;;;;;;;21.87;50.97;94992.63;1040929;28;820;-71
2021/08/07 01:15:14;;;;;;;;;;;;;;;21.88;50.93;94991.56;1030978;28;2318;-71
2021/08/07 01:15:51;;;;;;;;;;;;;;;21.88;50.97;94992.31;1022095;28;1349;-72
2021/08/07 01:16:42;;;;;;;;;;;;;;;21.89;51.07;94993.09;1030061;28;1456;-72
2021/08/07 01:17:32;;;;;;;;;;;;;;;21.90;50.89;94991.25;1033701;28;1869;-72
2021/08/07 01:18:22;;;;;;;;;;;;;;;21.90;50.77;94992.03;1040452;28;1071;-72
2021/08/07 01:18:53;;;;;;;;;;;;;;;21.88;50.81;94989.69;1039566;28;1394;-72
2021/08/07 01:19:23;;;;;;;;;;;;;;;21.88;50.89;94989.69;1044690;28;827;-71
2021/08/07 01:19:59;;;;;;;;;;;;;;;21.88;50.96;94992.31;1042488;28;1151;-72
2021/08/07 01:20:36;;;;;;;;;;;;;;;21.90;50.83;94992.03;1040991;28;2424;-72
2021/08/07 01:21:07;;;;;;;;;;;;;;;21.89;50.99;94998.38;1040813;28;1155;-72
2021/08/07 01:21:39;;;;;;;;;;;;;;;21.89;50.90;94995.75;1042465;28;1201;-71
2021/08/07 01:22:09;;;;;;;;;;;;;;;21.88;51.11;94993.41;1034388;28;2131;-71
2021/08/07 01:23:00;;;;;;;;;;;;;;;21.88;51.18;94993.41;1029191;28;1026;-72
2021/08/07 01:23:49;;;;;;;;;;;;;;;21.88;51.14;94992.31;1033451;28;1153;-72
2021/08/07 01:24:22;;;;;;;;;;;;;;;21.89;51.22;94990.47;1037475;28;1066;-73
2021/08/07 01:24:57;;;;;;;;;;;;;;;21.88;51.14;94983.66;1042049;28;1266;-72
2021/08/07 01:25:34;;;;;;;;;;;;;;;21.88;51.01;94992.31;1040598;28;2646;-72
2021/08/07 01:26:11;;;;;;;;;;;;;;;21.88;51.06;94991.56;1042449;28;1357;-71
2021/08/07 01:27:02;;;;;;;;;;;;;;;21.88;51.14;94988.13;1041298;28;1509;-72
2021/08/07 01:27:35;;;;;;;;;;;;;;;21.87;51.08;94987.34;1036940;28;793;-72
2021/08/07 01:28:05;;;;;;;;;;;;;;;21.88;51.15;94986.28;1041778;28;1175;-72
2021/08/07 01:28:38;;;;;;;;;;;;;;;21.88;51.12;94988.13;1040009;28;1167;-72
2021/08/07 01:29:08;;;;;;;;;;;;;;;21.88;50.92;94985.50;1039836;28;1195;-72
2021/08/07 01:29:38;;;;;;;;;;;;;;;21.88;51.01;94977.59;1040859;28;1183;-73
2021/08/07 01:30:10;;;;;;;;;;;;;;;21.88;51.05;94981.78;1039779;28;1128;-72
2021/08/07 01:30:40;;;;;;;;;;;;;;;21.88;50.84;94977.59;1033004;28;2599;-72
2021/08/07 01:31:11;;;;;;;;;;;;;;;21.88;50.99;94970.47;1035892;28;1157;-72
2021/08/07 01:31:47;;;;;;;;;;;;;;;21.87;50.79;94976.78;1032768;28;1431;-72
2021/08/07 01:32:17;;;;;;;;;;;;;;;21.88;50.82;94970.47;1033040;28;1490;-73
2021/08/07 01:32:47;;;;;;;;;;;;;;;21.87;50.76;94966.25;1029981;28;1335;-71
2021/08/07 01:33:18;;;;;;;;;;;;;;;21.87;50.99;94974.16;1032937;28;686;-72
2021/08/07 01:33:48;;;;;;;;;;;;;;;21.88;50.78;94970.47;1033210;28;1163;-71
2021/08/07 01:34:18;;;;;;;;;;;;;;;21.88;50.86;94967.03;1033308;28;1451;-72
2021/08/07 01:34:49;;;;;;;;;;;;;;;21.86;50.78;94975.25;1033494;28;1141;-72
2021/08/07 01:35:19;;;;;;;;;;;;;;;21.87;50.75;94963.59;1035629;28;2235;-71
2021/08/07 01:35:49;;;;;;;;;;;;;;;21.87;50.99;94968.88;1029432;28;1185;-73
2021/08/07 01:36:19;;;;;;;;;;;;;;;21.88;51.00;94961.75;1030071;28;1834;-72
2021/08/07 01:36:50;;;;;;;;;;;;;;;21.88;51.11;94961.75;1029322;28;1496;-72
2021/08/07 01:37:20;;;;;;;;;;;;;;;21.87;51.00;94974.16;1028803;28;1281;-72
2021/08/07 01:37:50;;;;;;;;;;;;;;;21.87;51.07;94960.97;1037848;28;1187;-72
2021/08/07 01:38:21;;;;;;;;;;;;;;;21.87;50.72;94968.88;1040865;28;793;-72
2021/08/07 01:38:51;;;;;;;;;;;;;;;21.87;51.12;94966.25;1038667;28;1183;-73
2021/08/07 01:39:21;;;;;;;;;;;;;;;21.86;50.80;94962.81;1040379;28;1411;-72
2021/08/07 01:39:52;;;;;;;;;;;;;;;21.86;51.02;94965.47;1037909;28;1179;-71
2021/08/07 01:40:22;;;;;;;;;;;;;;;21.87;50.91;94963.59;1043400;28;2332;-72
2021/08/07 01:40:53;;;;;;;;;;;;;;;21.88;50.93;94961.75;1042536;28;1182;-72
2021/08/07 01:41:23;;;;;;;;;;;;;;;21.87;50.72;94955.69;1045289;28;1045;-72
2021/08/07 01:41:53;;;;;;;;;;;;;;;21.86;51.10;94959.44;1044822;28;1342;-71
2021/08/07 01:42:24;;;;;;;;;;;;;;;21.86;50.87;94952.25;1044637;28;1167;-72
2021/08/07 01:42:54;;;;;;;;;;;;;;;21.86;50.58;94952.25;1044995;28;1147;-72
2021/08/07 01:43:24;;;;;;;;;;;;;;;21.87;51.12;94950.41;1045053;28;1275;-70
2021/08/07 01:43:55;;;;;;;;;;;;;;;21.87;50.78;94945.13;1045224;28;1158;-71
2021/08/07 01:44:25;;;;;;;;;;;;;;;21.88;50.96;94945.94;1045005;28;856;-72
2021/08/07 01:44:55;;;;;;;;;;;;;;;21.88;51.05;94946.72;1044094;28;1716;-72
2021/08/07 01:45:25;;;;;;;;;;;;;;;21.88;51.03;94944.84;1043104;28;2414;-72
2021/08/07 01:45:56;;;;;;;;;;;;;;;21.88;50.70;94946.72;1045404;28;1440;-72
2021/08/07 01:46:27;;;;;;;;;;;;;;;21.88;50.86;94948.56;1047843;28;1173;-72
2021/08/07 01:47:00;;;;;;;;;;;;;;;21.88;50.86;94945.94;1045312;28;1545;-71
2021/08/07 01:47:43;;;;;;;;;;;;;;;21.86;51.02;94948.88;1040901;28;812;-71
2021/08/07 01:48:16;;;;;;;;;;;;;;;21.86;50.71;94939.06;1045035;28;1250;-72
2021/08/07 01:48:56;;;;;;;;;;;;;;;21.87;51.17;94942.50;1038249;28;1322;-72
2021/08/07 01:49:29;;;;;;;;;;;;;;;21.88;51.06;94945.94;1039792;28;1188;-72
2021/08/07 01:50:02;;;;;;;;;;;;;;;21.87;50.87;94945.13;1036778;28;1156;-72
2021/08/07 01:50:39;;;;;;;;;;;;;;;21.88;50.86;94946.72;1037303;28;2406;-72
2021/08/07 01:51:13;;;;;;;;;;;;;;;21.88;51.14;94940.66;1038280;28;1220;-70
2021/08/07 01:51:47;;;;;;;;;;;;;;;21.87;50.84;94939.88;1038701;28;967;-72
2021/08/07 01:52:22;;;;;;;;;;;;;;;21.87;50.98;94937.22;1034972;28;1278;-72
2021/08/07 01:52:54;;;;;;;;;;;;;;;21.87;51.12;94939.88;1032540;28;1204;-72
2021/08/07 01:53:25;;;;;;;;;;;;;;;21.87;50.92;94942.50;1031860;28;1850;-71
2021/08/07 01:53:56;;;;;;;;;;;;;;;21.86;51.08;94936.44;1036643;28;1909;-71
2021/08/07 01:54:30;;;;;;;;;;;;;;;21.87;50.93;94929.31;1032904;28;1019;-72
2021/08/07 01:55:01;;;;;;;;;;;;;;;21.88;50.91;94933.53;1037689;28;1140;-73
2021/08/07 01:55:35;;;;;;;;;;;;;;;21.89;50.95;94932.44;1036707;28;2270;-70
2021/08/07 01:56:14;;;;;;;;;;;;;;;21.88;51.20;94936.16;1036683;28;1121;-72
2021/08/07 01:56:44;;;;;;;;;;;;;;;21.88;50.98;94930.88;1039562;28;1460;-72
2021/08/07 01:57:16;;;;;;;;;;;;;;;21.88;51.12;94930.88;1040596;28;1261;-73
2021/08/07 01:58:09;;;;;;;;;;;;;;;21.88;50.86;94930.88;1032886;28;1152;-71
2021/08/07 01:58:46;;;;;;;;;;;;;;;21.88;51.19;94938.78;1031053;28;1201;-72
2021/08/07 01:59:18;;;;;;;;;;;;;;;21.87;51.01;94926.66;1032356;28;1051;-73
2021/08/07 01:59:48;;;;;;;;;;;;;;;21.87;51.15;94937.22;1037308;28;1141;-72
2021/08/07 02:00:19;;;;;;;;;;;;;;;21.87;51.06;94934.59;1033701;28;2336;-73
2021/08/07 02:00:50;;;;;;;;;;;;;;;21.86;50.99;94941.72;1028950;28;2138;-72
2021/08/07 02:01:29;;;;;;;;;;;;;;;21.87;50.96;94945.13;1032185;28;789;-71
2021/08/07 02:01:59;;;;;;;;;;;;;;;21.86;51.11;94949.63;1030961;28;1429;-72
2021/08/07 02:02:29;;;;;;;;;;;;;;;21.88;51.14;94959.13;1032671;28;1226;-72
2021/08/07 02:03:00;;;;;;;;;;;;;;;21.88;51.06;94948.56;1037911;28;1093;-72
2021/08/07 02:03:30;;;;;;;;;;;;;;;21.88;51.15;94964.41;1042127;28;1713;-72
2021/08/07 02:04:01;;;;;;;;;;;;;;;21.88;51.22;94959.91;1035331;28;2283;-71
2021/08/07 02:04:31;;;;;;;;;;;;;;;21.88;51.21;94952.00;1036671;28;800;-73
2021/08/07 02:05:01;;;;;;;;;;;;;;;21.88;50.93;94962.53;1037924;28;1208;-73
2021/08/07 02:05:32;;;;;;;;;;;;;;;21.88;51.22;94965.19;1039771;28;2646;-72
2021/08/07 02:06:02;;;;;;;;;;;;;;;21.88;50.99;94962.53;1037457;28;2872;-72
2021/08/07 02:06:33;;;;;;;;;;;;;;;21.88;51.19;94951.19;1034564;28;1458;-70
2021/08/07 02:07:03;;;;;;;;;;;;;;;21.88;51.08;94954.63;1036451;28;1547;-73
2021/08/07 02:07:33;;;;;;;;;;;;;;;21.88;51.19;94954.63;1036561;28;1127;-71
2021/08/07 02:08:04;;;;;;;;;;;;;;;21.88;51.25;94952.00;1036630;28;1144;-73
2021/08/07 02:08:36;;;;;;;;;;;;;;;21.88;51.20;94954.63;1040729;28;1440;-72
2021/08/07 02:09:06;;;;;;;;;;;;;;;21.88;51.06;94961.75;1040539;28;1215;-72
2021/08/07 02:09:36;;;;;;;;;;;;;;;21.88;50.96;94952.75;1039774;28;816;-71
2021/08/07 02:10:07;;;;;;;;;;;;;;;21.88;51.19;94964.41;1040749;28;1215;-71
2021/08/07 02:10:37;;;;;;;;;;;;;;;21.88;51.00;94967.03;1035311;28;2460;-72
2021/08/07 02:11:08;;;;;;;;;;;;;;;21.88;51.07;94967.03;1035756;28;1148;-72
2021/08/07 02:11:40;;;;;;;;;;;;;;;21.88;51.01;94967.81;1031894;28;1896;-72
2021/08/07 02:12:10;;;;;;;;;;;;;;;21.88;50.88;94962.53;1035780;28;1865;-71
2021/08/07 02:12:41;;;;;;;;;;;;;;;21.88;51.07;94962.53;1036993;28;1023;-72
2021/08/07 02:13:12;;;;;;;;;;;;;;;21.88;51.19;94961.75;1044533;28;1164;-71
2021/08/07 02:13:42;;;;;;;;;;;;;;;21.88;51.30;94959.91;1042139;28;1147;-71
2021/08/07 02:14:14;;;;;;;;;;;;;;;21.87;50.80;94953.06;1040757;28;1334;-71
2021/08/07 02:14:44;;;;;;;;;;;;;;;21.87;51.35;94958.31;1036733;28;1107;-71
2021/08/07 02:15:15;;;;;;;;;;;;;;;21.86;50.94;94952.25;1036717;28;1160;-72
2021/08/07 02:15:46;;;;;;;;;;;;;;;21.86;51.27;94949.63;1035390;28;2365;-71
2021/08/07 02:16:17;;;;;;;;;;;;;;;21.88;51.21;94942.19;1032200;28;1042;-72
2021/08/07 02:16:47;;;;;;;;;;;;;;;21.88;50.99;94945.94;1036664;28;1527;-70
2021/08/07 02:17:17;;;;;;;;;;;;;;;21.88;51.15;94945.94;1038571;28;1297;-71
2021/08/07 02:17:48;;;;;;;;;;;;;;;21.88;51.03;94943.28;1041106;28;1195;-70
2021/08/07 02:18:21;;;;;;;;;;;;;;;21.87;50.75;94945.13;1044923;28;770;-71
2021/08/07 02:18:51;;;;;;;;;;;;;;;21.86;50.83;94943.59;1044637;28;1127;-71
2021/08/07 02:19:22;;;;;;;;;;;;;;;21.86;51.10;94940.97;1044617;28;776;-70
2021/08/07 02:19:52;;;;;;;;;;;;;;;21.86;51.15;94944.34;1040585;28;1316;-71
2021/08/07 02:20:22;;;;;;;;;;;;;;;21.86;51.24;94943.59;1040739;28;1155;-71
2021/08/07 02:20:53;;;;;;;;;;;;;;;21.87;50.75;94945.13;1039729;28;2824;-72
2021/08/07 02:21:23;;;;;;;;;;;;;;;21.88;50.74;94943.28;1038229;28;2658;-71
2021/08/07 02:21:53;;;;;;;;;;;;;;;21.86;50.85;94946.22;1034829;28;1189;-70
2021/08/07 02:22:24;;;;;;;;;;;;;;;21.86;51.22;94946.22;1039946;28;2634;-72
2021/08/07 02:22:54;;;;;;;;;;;;;;;21.86;50.99;94948.88;1037822;28;2617;-70
2021/08/07 02:23:24;;;;;;;;;;;;;;;21.85;51.09;94945.44;1040884;28;979;-71
2021/08/07 02:23:55;;;;;;;;;;;;;;;21.86;50.99;94948.88;1042538;28;1190;-72
2021/08/07 02:24:25;;;;;;;;;;;;;;;21.86;50.79;94952.25;1040905;28;1125;-72
2021/08/07 02:24:55;;;;;;;;;;;;;;;21.86;51.02;94952.25;1045024;28;1215;-71
2021/08/07 02:25:26;;;;;;;;;;;;;;;21.86;51.07;94946.22;1040206;28;2308;-73
2021/08/07 02:26:00;;;;;;;;;;;;;;;21.86;51.00;94957.53;1036310;28;2205;-71
2021/08/07 02:26:30;;;;;;;;;;;;;;;21.86;51.27;94943.59;1040512;28;1832;-71
2021/08/07 02:27:01;;;;;;;;;;;;;;;21.86;50.75;94943.59;1038910;28;1421;-71
2021/08/07 02:27:31;;;;;;;;;;;;;;;21.87;50.68;94945.13;1042184;28;1135;-72
2021/08/07 02:28:01;;;;;;;;;;;;;;;21.85;50.92;94934.88;1040566;28;1124;-71
2021/08/07 02:28:32;;;;;;;;;;;;;;;21.85;51.16;94940.16;1040757;28;1269;-71
2021/08/07 02:29:02;;;;;;;;;;;;;;;21.85;50.83;94942.81;1036454;28;1133;-71
2021/08/07 02:29:33;;;;;;;;;;;;;;;21.86;51.01;94933.81;1032485;28;863;-71
2021/08/07 02:30:04;;;;;;;;;;;;;;;21.85;51.17;94934.09;1032325;28;1145;-72
2021/08/07 02:30:34;;;;;;;;;;;;;;;21.85;50.94;94928.81;1029601;28;2283;-71
2021/08/07 02:31:05;;;;;;;;;;;;;;;21.85;51.14;94926.97;1039312;28;1140;-71
2021/08/07 02:31:35;;;;;;;;;;;;;;;21.85;51.01;94932.25;1038733;28;1475;-73
2021/08/07 02:32:05;;;;;;;;;;;;;;;21.85;50.72;94931.47;1037266;28;1242;-72
2021/08/07 02:32:36;;;;;;;;;;;;;;;21.86;50.79;94928.53;1036320;28;1080;-72
2021/08/07 02:33:06;;;;;;;;;;;;;;;21.85;51.00;94926.19;1039539;28;1148;-71
2021/08/07 02:33:37;;;;;;;;;;;;;;;21.86;50.88;94925.13;1040748;28;1303;-70
2021/08/07 02:34:07;;;;;;;;;;;;;;;21.85;51.24;94920.91;1041478;28;1202;-72
2021/08/07 02:34:37;;;;;;;;;;;;;;;21.84;51.08;94925.41;1040293;28;1026;-71
2021/08/07 02:35:08;;;;;;;;;;;;;;;21.85;50.98;94920.91;1041183;28;2662;-72
2021/08/07 02:35:38;;;;;;;;;;;;;;;21.85;51.24;94918.28;1036913;28;2619;-71
2021/08/07 02:36:09;;;;;;;;;;;;;;;21.85;51.03;94920.91;1036678;28;1219;-70
2021/08/07 02:36:39;;;;;;;;;;;;;;;21.85;50.85;94920.91;1040402;28;1352;-72
2021/08/07 02:37:10;;;;;;;;;;;;;;;21.85;51.14;94920.91;1040433;28;1298;-72
2021/08/07 02:37:40;;;;;;;;;;;;;;;21.85;50.92;94919.06;1036903;28;943;-71
2021/08/07 02:38:11;;;;;;;;;;;;;;;21.86;50.95;94922.50;1036466;28;1176;-72
2021/08/07 02:38:41;;;;;;;;;;;;;;;21.85;50.81;94919.06;1036475;28;986;-72
2021/08/07 02:39:12;;;;;;;;;;;;;;;21.86;51.14;94922.50;1036305;28;1172;-72
2021/08/07 02:39:42;;;;;;;;;;;;;;;21.85;50.98;94916.44;1035831;28;1183;-71
2021/08/07 02:40:13;;;;;;;;;;;;;;;21.85;51.01;94915.63;1036788;28;1152;-71
2021/08/07 02:40:43;;;;;;;;;;;;;;;21.85;51.05;94920.91;1030848;28;2329;-72
2021/08/07 02:41:13;;;;;;;;;;;;;;;21.86;51.07;94919.84;1036296;28;1073;-70
2021/08/07 02:41:43;;;;;;;;;;;;;;;21.84;50.86;94920.13;1036595;28;1194;-70
2021/08/07 02:42:14;;;;;;;;;;;;;;;21.84;51.03;94912.22;1032115;28;1302;-72
2021/08/07 02:42:44;;;;;;;;;;;;;;;21.84;51.16;94916.72;1029720;28;1246;-72
2021/08/07 02:43:14;;;;;;;;;;;;;;;21.85;51.03;94915.63;1032579;28;1152;-72
2021/08/07 02:43:45;;;;;;;;;;;;;;;21.85;50.85;94920.91;1032362;28;1207;-72
2021/08/07 02:44:16;;;;;;;;;;;;;;;21.86;51.08;94919.84;1027732;28;2370;-70
2021/08/07 02:44:46;;;;;;;;;;;;;;;21.84;51.04;94920.13;1037429;28;1188;-71
2021/08/07 02:45:16;;;;;;;;;;;;;;;21.86;50.97;94919.84;1036823;28;812;-72
2021/08/07 02:45:46;;;;;;;;;;;;;;;21.85;50.95;94921.69;1033825;28;2707;-72
2021/08/07 02:46:17;;;;;;;;;;;;;;;21.85;51.15;94926.19;1035053;28;1241;-72
2021/08/07 02:46:47;;;;;;;;;;;;;;;21.85;50.92;94926.97;1028665;28;1331;-71
2021/08/07 02:47:18;;;;;;;;;;;;;;;21.86;51.05;94922.50;1035604;28;1633;-72